sensor_id;sensor_type;location;lat;lon;timestamp;temperature;humidity
9403;DHT22;4741;49.834;10.740;2023-03-15T02:50:40;1.00;99.90
9403;DHT22;4741;49.834;10.740;2023-03-15T02:54:16;1.00;99.90
9403;DHT22;4741;49.834;10.740;2023-03-15T02:56:48;0.90;99.90
9403;DHT22;4741;49.834;10.740;2023-03-15T02:59:38;0.90;99.90
9403;DHT22;4741;49.834;10.740;2023-03-15T03:16:39;0.70;99.90
9403;DHT22;4741;49.834;10.740;2023-03-15T03:23:32;0.60;99.90
9403;DHT22;4741;49.834;10.740;2023-03-15T03:37:15;0.50;99.90
9403;DHT22;4741;49.834;10.740;2023-03-15T03:52:57;0.20;99.90
9403;DHT22;4741;49.834;10.740;2023-03-15T03:59:38;0.90;99.90
9403;DHT22;4741;49.834;10.740;2023-03-15T04:02:09;0.20;99.90
9403;DHT22;4741;49.834;10.740;2023-03-15T04:04:38;0.00;99.90
9403;DHT22;4741;49.834;10.740;2023-03-15T04:07:26;-0.50;99.90
9403;DHT22;4741;49.834;10.740;2023-03-15T04:10:12;0.20;99.90
9403;DHT22;4741;49.834;10.740;2023-03-15T04:12:42;0.20;99.90
9403;DHT22;4741;49.834;10.740;2023-03-15T04:19:12;0.20;99.90
9403;DHT22;4741;49.834;10.740;2023-03-15T04:22:13;0.20;99.90
9403;DHT22;4741;49.834;10.740;2023-03-15T04:25:10;0.20;99.90
9403;DHT22;4741;49.834;10.740;2023-03-15T09:03:37;3.40;99.90
9403;DHT22;4741;49.834;10.740;2023-03-15T09:06:07;3.00;99.90
9403;DHT22;4741;49.834;10.740;2023-03-15T09:13:23;2.70;99.90
9403;DHT22;4741;49.834;10.740;2023-03-15T11:47:22;2.70;99.90
9403;DHT22;4741;49.834;10.740;2023-03-15T11:54:28;2.60;99.90
9403;DHT22;4741;49.834;10.740;2023-03-15T12:01:29;2.60;99.90
9403;DHT22;4741;49.834;10.740;2023-03-15T12:11:51;3.20;99.90
9403;DHT22;4741;49.834;10.740;2023-03-15T12:29:59;2.70;99.90
9403;DHT22;4741;49.834;10.740;2023-03-15T15:54:24;8.80;99.90
9403;DHT22;4741;49.834;10.740;2023-03-15T15:56:58;6.10;99.90
9403;DHT22;4741;49.834;10.740;2023-03-15T15:59:25;5.30;99.90
9403;DHT22;4741;49.834;10.740;2023-03-15T16:01:53;4.10;99.90
9403;DHT22;4741;49.834;10.740;2023-03-15T16:04:31;3.70;99.90
9403;DHT22;4741;49.834;10.740;2023-03-15T16:06:58;3.20;99.90
9403;DHT22;4741;49.834;10.740;2023-03-15T16:09:34;3.00;99.90
9403;DHT22;4741;49.834;10.740;2023-03-15T16:12:10;2.60;99.90
9403;DHT22;4741;49.834;10.740;2023-03-15T16:14:37;2.40;99.90
9403;DHT22;4741;49.834;10.740;2023-03-15T16:17:11;2.10;99.90
9403;DHT22;4741;49.834;10.740;2023-03-15T16:19:47;2.40;99.90
9403;DHT22;4741;49.834;10.740;2023-03-15T16:22:22;2.10;99.90
9403;DHT22;4741;49.834;10.740;2023-03-15T16:24:58;3.40;99.90
9403;DHT22;4741;49.834;10.740;2023-03-15T16:27:41;2.60;99.90
9403;DHT22;4741;49.834;10.740;2023-03-15T16:30:17;2.60;99.90
9403;DHT22;4741;49.834;10.740;2023-03-15T16:32:44;2.50;99.90
9403;DHT22;4741;49.834;10.740;2023-03-15T16:35:11;1.80;99.90
9403;DHT22;4741;49.834;10.740;2023-03-15T16:37:44;2.60;99.90
9403;DHT22;4741;49.834;10.740;2023-03-15T16:40:24;2.70;99.90
9403;DHT22;4741;49.834;10.740;2023-03-15T16:42:53;2.50;99.90
9403;DHT22;4741;49.834;10.740;2023-03-15T16:45:20;2.70;99.90
9403;DHT22;4741;49.834;10.740;2023-03-15T16:47:50;3.80;99.90
9403;DHT22;4741;49.834;10.740;2023-03-15T16:50:17;3.60;99.90
9403;DHT22;4741;49.834;10.740;2023-03-15T16:52:45;2.70;99.90
9403;DHT22;4741;49.834;10.740;2023-03-15T16:55:24;3.10;99.90
9403;DHT22;4741;49.834;10.740;2023-03-15T16:57:54;2.80;99.90
9403;DHT22;4741;49.834;10.740;2023-03-15T17:00:21;2.30;99.90
9403;DHT22;4741;49.834;10.740;2023-03-15T17:02:50;2.50;99.90
9403;DHT22;4741;49.834;10.740;2023-03-15T17:05:18;1.90;99.90
9403;DHT22;4741;49.834;10.740;2023-03-15T17:07:46;2.10;99.90
9403;DHT22;4741;49.834;10.740;2023-03-15T17:10:19;1.40;99.90
9403;DHT22;4741;49.834;10.740;2023-03-15T17:12:46;2.10;99.90
9403;DHT22;4741;49.834;10.740;2023-03-15T17:15:13;1.90;99.90
9403;DHT22;4741;49.834;10.740;2023-03-15T17:17:41;2.70;99.90
9403;DHT22;4741;49.834;10.740;2023-03-15T17:20:11;1.90;99.90
9403;DHT22;4741;49.834;10.740;2023-03-15T17:22:48;1.70;99.90
9403;DHT22;4741;49.834;10.740;2023-03-15T17:25:17;2.50;99.90
9403;DHT22;4741;49.834;10.740;2023-03-15T17:27:44;1.60;99.90
9403;DHT22;4741;49.834;10.740;2023-03-15T17:30:23;1.60;99.90
9403;DHT22;4741;49.834;10.740;2023-03-15T17:32:50;1.40;99.90
9403;DHT22;4741;49.834;10.740;2023-03-15T17:35:18;0.80;99.90
9403;DHT22;4741;49.834;10.740;2023-03-15T17:37:45;1.10;99.90
9403;DHT22;4741;49.834;10.740;2023-03-15T17:42:51;1.10;99.90
9403;DHT22;4741;49.834;10.740;2023-03-15T17:45:20;0.80;99.90
9403;DHT22;4741;49.834;10.740;2023-03-15T17:47:47;1.00;99.90
9403;DHT22;4741;49.834;10.740;2023-03-15T17:50:18;1.00;99.90
9403;DHT22;4741;49.834;10.740;2023-03-15T17:52:46;1.10;99.90
9403;DHT22;4741;49.834;10.740;2023-03-15T17:55:18;0.60;99.90
9403;DHT22;4741;49.834;10.740;2023-03-15T17:57:46;0.40;99.90
9403;DHT22;4741;49.834;10.740;2023-03-15T18:00:21;0.50;99.90
9403;DHT22;4741;49.834;10.740;2023-03-15T18:03:02;0.90;99.90
9403;DHT22;4741;49.834;10.740;2023-03-15T18:05:41;1.10;99.90
9403;DHT22;4741;49.834;10.740;2023-03-15T18:08:18;0.60;99.90
9403;DHT22;4741;49.834;10.740;2023-03-15T18:10:46;0.70;99.90
9403;DHT22;4741;49.834;10.740;2023-03-15T18:13:15;0.70;99.90
9403;DHT22;4741;49.834;10.740;2023-03-15T18:15:43;0.30;99.90
9403;DHT22;4741;49.834;10.740;2023-03-15T18:20:37;0.50;99.90
9403;DHT22;4741;49.834;10.740;2023-03-15T18:25:32;0.40;99.90
9403;DHT22;4741;49.834;10.740;2023-03-15T18:27:59;0.40;99.90
9403;DHT22;4741;49.834;10.740;2023-03-15T18:30:27;0.40;99.90
9403;DHT22;4741;49.834;10.740;2023-03-15T18:32:57;0.40;99.90
9403;DHT22;4741;49.834;10.740;2023-03-15T18:37:51;0.20;99.90
9403;DHT22;4741;49.834;10.740;2023-03-15T18:40:21;0.20;99.90
9403;DHT22;4741;49.834;10.740;2023-03-15T18:47:42;0.10;99.90
9403;DHT22;4741;49.834;10.740;2023-03-15T18:50:09;0.10;99.90
9403;DHT22;4741;49.834;10.740;2023-03-15T18:52:36;0.30;99.90
9403;DHT22;4741;49.834;10.740;2023-03-15T18:57:36;0.10;99.90
9403;DHT22;4741;49.834;10.740;2023-03-15T19:00:07;-0.20;99.90
9403;DHT22;4741;49.834;10.740;2023-03-15T19:02:40;0.00;99.90
9403;DHT22;4741;49.834;10.740;2023-03-15T19:05:07;-0.50;99.90
9403;DHT22;4741;49.834;10.740;2023-03-15T19:07:34;0.00;99.90
9403;DHT22;4741;49.834;10.740;2023-03-15T19:10:01;-0.40;99.90
9403;DHT22;4741;49.834;10.740;2023-03-15T19:12:28;-0.70;99.90
9403;DHT22;4741;49.834;10.740;2023-03-15T19:14:55;-0.40;99.90
9403;DHT22;4741;49.834;10.740;2023-03-15T19:17:22;-0.60;99.90
9403;DHT22;4741;49.834;10.740;2023-03-15T19:19:52;0.20;99.90
9403;DHT22;4741;49.834;10.740;2023-03-15T19:22:18;0.00;99.90
9403;DHT22;4741;49.834;10.740;2023-03-15T19:27:12;-0.40;99.90
9403;DHT22;4741;49.834;10.740;2023-03-15T19:29:39;0.00;99.90
9403;DHT22;4741;49.834;10.740;2023-03-15T19:32:06;-0.50;99.90
9403;DHT22;4741;49.834;10.740;2023-03-15T19:34:32;-0.70;99.90
9403;DHT22;4741;49.834;10.740;2023-03-15T19:39:29;-0.50;99.90
9403;DHT22;4741;49.834;10.740;2023-03-15T19:41:56;0.10;99.90
9403;DHT22;4741;49.834;10.740;2023-03-15T19:44:23;-0.30;99.90
9403;DHT22;4741;49.834;10.740;2023-03-15T19:46:50;-0.30;99.90
9403;DHT22;4741;49.834;10.740;2023-03-15T19:49:17;-0.10;99.90
9403;DHT22;4741;49.834;10.740;2023-03-15T19:51:47;-0.30;99.90
9403;DHT22;4741;49.834;10.740;2023-03-15T19:54:19;-0.80;99.90
9403;DHT22;4741;49.834;10.740;2023-03-15T19:56:46;-0.60;99.90
9403;DHT22;4741;49.834;10.740;2023-03-15T19:59:16;-0.20;99.90
9403;DHT22;4741;49.834;10.740;2023-03-15T20:01:43;0.50;99.90
9403;DHT22;4741;49.834;10.740;2023-03-15T20:04:10;-1.40;99.90
9403;DHT22;4741;49.834;10.740;2023-03-15T20:06:39;0.20;99.90
9403;DHT22;4741;49.834;10.740;2023-03-15T20:09:06;-0.80;99.90
9403;DHT22;4741;49.834;10.740;2023-03-15T20:11:33;0.30;99.90
9403;DHT22;4741;49.834;10.740;2023-03-15T20:14:07;-0.80;99.90
9403;DHT22;4741;49.834;10.740;2023-03-15T20:16:36;-1.20;99.90
9403;DHT22;4741;49.834;10.740;2023-03-15T20:19:12;0.90;99.90
9403;DHT22;4741;49.834;10.740;2023-03-15T20:21:54;1.10;99.90
9403;DHT22;4741;49.834;10.740;2023-03-15T20:24:30;0.60;99.90
9403;DHT22;4741;49.834;10.740;2023-03-15T20:26:57;-0.50;99.90
9403;DHT22;4741;49.834;10.740;2023-03-15T20:29:29;-1.10;99.90
9403;DHT22;4741;49.834;10.740;2023-03-15T20:32:00;-1.20;99.90
9403;DHT22;4741;49.834;10.740;2023-03-15T20:34:34;-0.50;99.90
9403;DHT22;4741;49.834;10.740;2023-03-15T20:37:04;-0.90;99.90
9403;DHT22;4741;49.834;10.740;2023-03-15T20:39:33;-1.40;99.90
9403;DHT22;4741;49.834;10.740;2023-03-15T20:42:05;-1.10;99.90
9403;DHT22;4741;49.834;10.740;2023-03-15T20:44:33;0.00;99.90
9403;DHT22;4741;49.834;10.740;2023-03-15T20:47:07;0.90;99.90
9403;DHT22;4741;49.834;10.740;2023-03-15T20:49:52;-0.40;99.90
9403;DHT22;4741;49.834;10.740;2023-03-15T20:55:09;-1.10;99.90
9403;DHT22;4741;49.834;10.740;2023-03-15T20:57:36;-0.30;99.90
9403;DHT22;4741;49.834;10.740;2023-03-15T21:00:30;-0.40;99.90
9403;DHT22;4741;49.834;10.740;2023-03-15T21:03:02;-0.50;99.90
9403;DHT22;4741;49.834;10.740;2023-03-15T21:05:35;-0.40;99.90
9403;DHT22;4741;49.834;10.740;2023-03-15T21:08:04;-1.10;99.90
9403;DHT22;4741;49.834;10.740;2023-03-15T21:10:31;0.00;99.90
9403;DHT22;4741;49.834;10.740;2023-03-15T21:13:08;-1.10;99.90
9403;DHT22;4741;49.834;10.740;2023-03-15T21:15:43;-1.10;99.90
9403;DHT22;4741;49.834;10.740;2023-03-15T21:18:13;-1.10;99.90
9403;DHT22;4741;49.834;10.740;2023-03-15T21:20:57;-0.60;99.90
9403;DHT22;4741;49.834;10.740;2023-03-15T21:23:32;-1.20;99.90
9403;DHT22;4741;49.834;10.740;2023-03-15T21:26:05;-0.80;99.90
9403;DHT22;4741;49.834;10.740;2023-03-15T21:28:36;-1.20;99.90
9403;DHT22;4741;49.834;10.740;2023-03-15T21:31:03;-1.90;99.90
9403;DHT22;4741;49.834;10.740;2023-03-15T21:33:38;-1.50;99.90
9403;DHT22;4741;49.834;10.740;2023-03-15T21:38:36;-1.40;99.90
9403;DHT22;4741;49.834;10.740;2023-03-15T21:41:17;-1.30;99.90
9403;DHT22;4741;49.834;10.740;2023-03-15T21:43:47;-0.90;99.90
9403;DHT22;4741;49.834;10.740;2023-03-15T21:46:32;-1.20;99.90
9403;DHT22;4741;49.834;10.740;2023-03-15T21:49:15;-1.20;99.90
9403;DHT22;4741;49.834;10.740;2023-03-15T21:52:30;-0.80;99.90
9403;DHT22;4741;49.834;10.740;2023-03-15T21:54:59;-1.30;99.90
9403;DHT22;4741;49.834;10.740;2023-03-15T21:57:30;-1.30;99.90
9403;DHT22;4741;49.834;10.740;2023-03-15T22:05:44;-0.60;99.90
9403;DHT22;4741;49.834;10.740;2023-03-15T22:08:24;0.20;99.90
9403;DHT22;4741;49.834;10.740;2023-03-15T22:11:03;-1.60;99.90
9403;DHT22;4741;49.834;10.740;2023-03-15T22:13:33;-1.90;99.90
9403;DHT22;4741;49.834;10.740;2023-03-15T22:16:00;-1.30;99.90
9403;DHT22;4741;49.834;10.740;2023-03-15T22:18:27;-1.10;99.90
9403;DHT22;4741;49.834;10.740;2023-03-15T22:21:00;-1.70;99.90
9403;DHT22;4741;49.834;10.740;2023-03-15T22:23:27;-1.20;99.90
9403;DHT22;4741;49.834;10.740;2023-03-15T22:25:53;-1.10;99.90
9403;DHT22;4741;49.834;10.740;2023-03-15T22:28:23;-1.50;99.90
9403;DHT22;4741;49.834;10.740;2023-03-15T22:30:55;-0.60;99.90
9403;DHT22;4741;49.834;10.740;2023-03-15T22:33:22;0.50;99.90
9403;DHT22;4741;49.834;10.740;2023-03-15T22:35:56;-1.60;99.90
9403;DHT22;4741;49.834;10.740;2023-03-15T22:38:24;-1.20;99.90
9403;DHT22;4741;49.834;10.740;2023-03-15T22:40:58;0.20;99.90
9403;DHT22;4741;49.834;10.740;2023-03-15T22:43:25;0.00;99.90
9403;DHT22;4741;49.834;10.740;2023-03-15T22:45:53;-1.20;99.90
9403;DHT22;4741;49.834;10.740;2023-03-15T22:48:20;-0.40;99.90
9403;DHT22;4741;49.834;10.740;2023-03-15T22:51:01;-1.70;99.90
9403;DHT22;4741;49.834;10.740;2023-03-15T22:53:29;-1.20;99.90
9403;DHT22;4741;49.834;10.740;2023-03-15T22:55:56;-1.40;99.90
9403;DHT22;4741;49.834;10.740;2023-03-15T22:58:24;-2.20;99.90
9403;DHT22;4741;49.834;10.740;2023-03-15T23:00:51;-1.60;99.90
9403;DHT22;4741;49.834;10.740;2023-03-15T23:03:18;0.10;99.90
9403;DHT22;4741;49.834;10.740;2023-03-15T23:05:47;-1.80;99.90
9403;DHT22;4741;49.834;10.740;2023-03-15T23:08:14;-1.30;99.90
9403;DHT22;4741;49.834;10.740;2023-03-15T23:10:41;-2.20;99.90
9403;DHT22;4741;49.834;10.740;2023-03-15T23:13:08;-1.00;99.90
9403;DHT22;4741;49.834;10.740;2023-03-15T23:15:34;-1.70;99.90
9403;DHT22;4741;49.834;10.740;2023-03-15T23:18:01;-1.50;99.90
9403;DHT22;4741;49.834;10.740;2023-03-15T23:20:28;-1.80;99.90
9403;DHT22;4741;49.834;10.740;2023-03-15T23:22:55;-2.00;99.90
9403;DHT22;4741;49.834;10.740;2023-03-15T23:25:22;-0.90;99.90
9403;DHT22;4741;49.834;10.740;2023-03-15T23:27:49;-1.60;99.90
9403;DHT22;4741;49.834;10.740;2023-03-15T23:30:16;-0.20;99.90
9403;DHT22;4741;49.834;10.740;2023-03-15T23:35:11;-1.90;99.90
9403;DHT22;4741;49.834;10.740;2023-03-15T23:37:40;-2.30;99.90
9403;DHT22;4741;49.834;10.740;2023-03-15T23:40:07;-2.10;99.90
9403;DHT22;4741;49.834;10.740;2023-03-15T23:42:41;-1.70;99.90
9403;DHT22;4741;49.834;10.740;2023-03-15T23:45:11;-1.80;99.90
9403;DHT22;4741;49.834;10.740;2023-03-15T23:47:38;-1.80;99.90
9403;DHT22;4741;49.834;10.740;2023-03-15T23:50:05;-1.80;99.90
9403;DHT22;4741;49.834;10.740;2023-03-15T23:52:33;-1.60;99.90
9403;DHT22;4741;49.834;10.740;2023-03-15T23:55:00;-1.60;99.90
9403;DHT22;4741;49.834;10.740;2023-03-15T23:57:27;-1.60;99.90
9403;DHT22;4741;49.834;10.740;2023-03-15T23:59:56;-1.70;99.90
